sensor_id;sensor_type;location;lat;lon;timestamp;temperature;humidity
1055;DHT22;516;51.482;7.120;2022-12-11T00:04:00;0.30;99.90
1055;DHT22;516;51.482;7.120;2022-12-11T00:09:47;0.30;99.90
1055;DHT22;516;51.482;7.120;2022-12-11T00:15:37;0.30;99.90
1055;DHT22;516;51.482;7.120;2022-12-11T00:21:24;0.40;99.90
1055;DHT22;516;51.482;7.120;2022-12-11T00:27:12;0.30;99.90
1055;DHT22;516;51.482;7.120;2022-12-11T00:33:00;0.30;99.90
1055;DHT22;516;51.482;7.120;2022-12-11T00:48:41;0.40;99.90
1055;DHT22;516;51.482;7.120;2022-12-11T00:54:29;0.40;99.90
1055;DHT22;516;51.482;7.120;2022-12-11T01:00:17;0.40;99.90
1055;DHT22;516;51.482;7.120;2022-12-11T01:06:06;0.50;99.90
1055;DHT22;516;51.482;7.120;2022-12-11T01:11:53;0.50;99.90
1055;DHT22;516;51.482;7.120;2022-12-11T01:17:41;0.50;99.90
1055;DHT22;516;51.482;7.120;2022-12-11T01:23:29;0.60;99.90
1055;DHT22;516;51.482;7.120;2022-12-11T01:29:16;0.50;99.90
1055;DHT22;516;51.482;7.120;2022-12-11T01:35:06;0.50;99.90
1055;DHT22;516;51.482;7.120;2022-12-11T01:37:50;0.50;99.90
1055;DHT22;516;51.482;7.120;2022-12-11T01:50:35;0.50;99.90
1055;DHT22;516;51.482;7.120;2022-12-11T01:56:23;0.50;99.90
1055;DHT22;516;51.482;7.120;2022-12-11T02:02:23;0.50;99.90
1055;DHT22;516;51.482;7.120;2022-12-11T02:08:30;0.50;99.90
1055;DHT22;516;51.482;7.120;2022-12-11T02:26:45;0.50;99.90
1055;DHT22;516;51.482;7.120;2022-12-11T02:32:55;0.60;99.90
1055;DHT22;516;51.482;7.120;2022-12-11T02:38:47;0.60;99.90
1055;DHT22;516;51.482;7.120;2022-12-11T02:44:37;0.60;99.90
1055;DHT22;516;51.482;7.120;2022-12-11T02:50:26;0.70;99.90
1055;DHT22;516;51.482;7.120;2022-12-11T02:56:18;0.60;99.90
1055;DHT22;516;51.482;7.120;2022-12-11T03:02:07;0.70;99.90
1055;DHT22;516;51.482;7.120;2022-12-11T03:07:55;0.70;99.90
1055;DHT22;516;51.482;7.120;2022-12-11T03:26:18;0.60;99.90
1055;DHT22;516;51.482;7.120;2022-12-11T03:32:11;0.60;99.90
1055;DHT22;516;51.482;7.120;2022-12-11T03:38:02;0.70;99.90
1055;DHT22;516;51.482;7.120;2022-12-11T03:43:55;0.70;99.90
1055;DHT22;516;51.482;7.120;2022-12-11T03:49:45;0.60;99.90
1055;DHT22;516;51.482;7.120;2022-12-11T03:55:35;0.70;99.90
1055;DHT22;516;51.482;7.120;2022-12-11T04:01:23;0.70;99.90
1055;DHT22;516;51.482;7.120;2022-12-11T04:07:11;0.70;99.90
1055;DHT22;516;51.482;7.120;2022-12-11T04:12:59;0.80;99.90
1055;DHT22;516;51.482;7.120;2022-12-11T04:18:47;0.80;99.90
1055;DHT22;516;51.482;7.120;2022-12-11T04:24:53;0.70;99.90
1055;DHT22;516;51.482;7.120;2022-12-11T04:30:47;0.80;99.90
1055;DHT22;516;51.482;7.120;2022-12-11T04:36:35;0.70;99.90
1055;DHT22;516;51.482;7.120;2022-12-11T04:39:38;0.80;99.90
1055;DHT22;516;51.482;7.120;2022-12-11T04:42:04;0.80;99.90
1055;DHT22;516;51.482;7.120;2022-12-11T04:47:52;0.80;99.90
1055;DHT22;516;51.482;7.120;2022-12-11T04:53:40;0.90;99.90
1055;DHT22;516;51.482;7.120;2022-12-11T04:59:27;0.90;99.90
1055;DHT22;516;51.482;7.120;2022-12-11T05:05:15;0.80;99.90
1055;DHT22;516;51.482;7.120;2022-12-11T05:11:06;0.80;99.90
1055;DHT22;516;51.482;7.120;2022-12-11T05:16:54;0.80;99.90
1055;DHT22;516;51.482;7.120;2022-12-11T05:22:42;0.90;99.90
1055;DHT22;516;51.482;7.120;2022-12-11T05:28:32;1.00;99.90
1055;DHT22;516;51.482;7.120;2022-12-11T05:34:20;1.10;99.90
1055;DHT22;516;51.482;7.120;2022-12-11T05:49:55;1.00;99.90
1055;DHT22;516;51.482;7.120;2022-12-11T05:55:42;1.00;99.90
1055;DHT22;516;51.482;7.120;2022-12-11T06:01:34;0.90;99.90
1055;DHT22;516;51.482;7.120;2022-12-11T06:07:21;1.00;99.90
1055;DHT22;516;51.482;7.120;2022-12-11T06:13:09;0.90;99.90
1055;DHT22;516;51.482;7.120;2022-12-11T06:18:57;0.90;99.90
1055;DHT22;516;51.482;7.120;2022-12-11T06:24:45;1.00;99.90
1055;DHT22;516;51.482;7.120;2022-12-11T06:30:32;1.00;99.90
1055;DHT22;516;51.482;7.120;2022-12-11T06:36:22;0.90;99.90
1055;DHT22;516;51.482;7.120;2022-12-11T06:42:05;0.90;99.90
1055;DHT22;516;51.482;7.120;2022-12-11T06:47:53;1.10;99.90
1055;DHT22;516;51.482;7.120;2022-12-11T06:53:41;0.90;99.90
1055;DHT22;516;51.482;7.120;2022-12-11T06:59:29;1.00;99.90
1055;DHT22;516;51.482;7.120;2022-12-11T07:05:16;1.00;99.90
1055;DHT22;516;51.482;7.120;2022-12-11T07:11:10;1.00;99.90
1055;DHT22;516;51.482;7.120;2022-12-11T07:16:58;1.00;99.90
1055;DHT22;516;51.482;7.120;2022-12-11T07:22:45;1.00;99.90
1055;DHT22;516;51.482;7.120;2022-12-11T07:28:34;1.00;99.90
1055;DHT22;516;51.482;7.120;2022-12-11T07:34:21;1.00;99.90
1055;DHT22;516;51.482;7.120;2022-12-11T07:50:02;1.00;99.90
1055;DHT22;516;51.482;7.120;2022-12-11T07:55:50;1.10;99.90
1055;DHT22;516;51.482;7.120;2022-12-11T08:01:38;1.00;99.90
1055;DHT22;516;51.482;7.120;2022-12-11T08:07:26;1.00;99.90
1055;DHT22;516;51.482;7.120;2022-12-11T08:13:14;1.00;99.90
1055;DHT22;516;51.482;7.120;2022-12-11T08:19:02;1.10;99.90
1055;DHT22;516;51.482;7.120;2022-12-11T08:24:49;1.10;99.90
1055;DHT22;516;51.482;7.120;2022-12-11T08:30:38;1.00;99.90
1055;DHT22;516;51.482;7.120;2022-12-11T08:36:27;1.20;99.90
1055;DHT22;516;51.482;7.120;2022-12-11T08:42:24;1.20;99.90
1055;DHT22;516;51.482;7.120;2022-12-11T08:48:12;1.30;99.90
1055;DHT22;516;51.482;7.120;2022-12-11T08:54:00;1.00;99.90
1055;DHT22;516;51.482;7.120;2022-12-11T08:59:46;1.00;99.90
1055;DHT22;516;51.482;7.120;2022-12-11T09:05:34;1.00;99.90
1055;DHT22;516;51.482;7.120;2022-12-11T09:11:23;1.20;99.90
1055;DHT22;516;51.482;7.120;2022-12-11T09:17:11;1.20;99.90
1055;DHT22;516;51.482;7.120;2022-12-11T09:22:59;1.30;99.90
1055;DHT22;516;51.482;7.120;2022-12-11T09:28:48;1.30;99.90
1055;DHT22;516;51.482;7.120;2022-12-11T09:34:37;1.20;99.90
1055;DHT22;516;51.482;7.120;2022-12-11T09:44:15;1.30;99.90
1055;DHT22;516;51.482;7.120;2022-12-11T10:03:09;1.40;99.90
1055;DHT22;516;51.482;7.120;2022-12-11T10:19:06;1.30;99.90
1055;DHT22;516;51.482;7.120;2022-12-11T10:24:59;1.30;99.90
1055;DHT22;516;51.482;7.120;2022-12-11T10:44:14;1.30;99.90
1055;DHT22;516;51.482;7.120;2022-12-11T10:50:04;1.50;99.90
1055;DHT22;516;51.482;7.120;2022-12-11T10:55:51;1.60;99.90
1055;DHT22;516;51.482;7.120;2022-12-11T11:01:39;1.50;99.90
1055;DHT22;516;51.482;7.120;2022-12-11T11:07:50;1.30;99.90
1055;DHT22;516;51.482;7.120;2022-12-11T11:13:37;1.40;99.90
1055;DHT22;516;51.482;7.120;2022-12-11T11:19:35;1.30;99.90
1055;DHT22;516;51.482;7.120;2022-12-11T11:25:25;1.30;99.90
1055;DHT22;516;51.482;7.120;2022-12-11T11:31:17;1.40;99.90
1055;DHT22;516;51.482;7.120;2022-12-11T11:47:21;1.30;99.90
1055;DHT22;516;51.482;7.120;2022-12-11T11:53:34;1.50;99.90
1055;DHT22;516;51.482;7.120;2022-12-11T11:59:33;1.30;99.90
1055;DHT22;516;51.482;7.120;2022-12-11T12:58:42;1.80;99.90
1055;DHT22;516;51.482;7.120;2022-12-11T13:16:52;1.70;99.90
1055;DHT22;516;51.482;7.120;2022-12-11T13:23:16;1.90;99.90
1055;DHT22;516;51.482;7.120;2022-12-11T13:29:04;1.70;99.90
1055;DHT22;516;51.482;7.120;2022-12-11T13:34:59;1.80;99.90
1055;DHT22;516;51.482;7.120;2022-12-11T13:44:20;1.70;99.90
1055;DHT22;516;51.482;7.120;2022-12-11T13:50:31;1.90;99.90
1055;DHT22;516;51.482;7.120;2022-12-11T13:56:21;1.70;99.90
1055;DHT22;516;51.482;7.120;2022-12-11T14:02:51;1.70;99.90
1055;DHT22;516;51.482;7.120;2022-12-11T14:08:54;1.80;99.90
1055;DHT22;516;51.482;7.120;2022-12-11T14:14:45;1.60;99.90
1055;DHT22;516;51.482;7.120;2022-12-11T14:20:34;1.80;99.90
1055;DHT22;516;51.482;7.120;2022-12-11T14:26:24;1.80;99.90
1055;DHT22;516;51.482;7.120;2022-12-11T14:38:48;1.80;99.90
1055;DHT22;516;51.482;7.120;2022-12-11T14:44:49;1.90;99.90
1055;DHT22;516;51.482;7.120;2022-12-11T14:50:43;1.60;99.90
1055;DHT22;516;51.482;7.120;2022-12-11T14:56:53;1.70;99.90
1055;DHT22;516;51.482;7.120;2022-12-11T15:02:40;1.80;99.90
1055;DHT22;516;51.482;7.120;2022-12-11T15:08:32;1.80;99.90
1055;DHT22;516;51.482;7.120;2022-12-11T15:14:21;1.70;99.90
1055;DHT22;516;51.482;7.120;2022-12-11T15:26:45;1.70;99.90
1055;DHT22;516;51.482;7.120;2022-12-11T15:32:33;1.70;99.90
1055;DHT22;516;51.482;7.120;2022-12-11T15:38:27;1.60;99.90
1055;DHT22;516;51.482;7.120;2022-12-11T15:47:54;1.60;99.90
1055;DHT22;516;51.482;7.120;2022-12-11T15:53:23;1.60;99.90
1055;DHT22;516;51.482;7.120;2022-12-11T15:59:11;1.80;99.90
1055;DHT22;516;51.482;7.120;2022-12-11T16:04:58;1.80;99.90
1055;DHT22;516;51.482;7.120;2022-12-11T16:10:46;1.70;99.90
1055;DHT22;516;51.482;7.120;2022-12-11T16:16:34;1.80;99.90
1055;DHT22;516;51.482;7.120;2022-12-11T16:22:22;1.70;99.90
1055;DHT22;516;51.482;7.120;2022-12-11T16:28:12;1.50;99.90
1055;DHT22;516;51.482;7.120;2022-12-11T16:34:00;1.60;99.90
1055;DHT22;516;51.482;7.120;2022-12-11T16:39:48;1.70;99.90
1055;DHT22;516;51.482;7.120;2022-12-11T16:45:35;1.70;99.90
1055;DHT22;516;51.482;7.120;2022-12-11T16:51:23;1.50;99.90
1055;DHT22;516;51.482;7.120;2022-12-11T16:57:11;1.60;99.90
1055;DHT22;516;51.482;7.120;2022-12-11T17:02:58;1.60;99.90
1055;DHT22;516;51.482;7.120;2022-12-11T17:08:47;1.60;99.90
1055;DHT22;516;51.482;7.120;2022-12-11T17:14:35;1.60;99.90
1055;DHT22;516;51.482;7.120;2022-12-11T17:20:23;1.60;99.90
1055;DHT22;516;51.482;7.120;2022-12-11T17:26:11;1.70;99.90
1055;DHT22;516;51.482;7.120;2022-12-11T17:31:58;1.50;99.90
1055;DHT22;516;51.482;7.120;2022-12-11T17:37:46;1.60;99.90
1055;DHT22;516;51.482;7.120;2022-12-11T17:47:02;1.50;99.90
1055;DHT22;516;51.482;7.120;2022-12-11T17:52:50;1.50;99.90
1055;DHT22;516;51.482;7.120;2022-12-11T17:58:38;1.40;99.90
1055;DHT22;516;51.482;7.120;2022-12-11T18:04:26;1.40;99.90
1055;DHT22;516;51.482;7.120;2022-12-11T18:06:52;1.50;99.90
1055;DHT22;516;51.482;7.120;2022-12-11T18:09:17;1.40;99.90
1055;DHT22;516;51.482;7.120;2022-12-11T18:15:06;1.40;99.90
1055;DHT22;516;51.482;7.120;2022-12-11T18:20:54;1.40;99.90
1055;DHT22;516;51.482;7.120;2022-12-11T18:26:41;1.40;99.90
1055;DHT22;516;51.482;7.120;2022-12-11T18:32:29;1.30;99.90
1055;DHT22;516;51.482;7.120;2022-12-11T18:38:17;1.30;99.90
1055;DHT22;516;51.482;7.120;2022-12-11T18:47:33;1.40;99.90
1055;DHT22;516;51.482;7.120;2022-12-11T18:53:21;1.40;99.90
1055;DHT22;516;51.482;7.120;2022-12-11T18:59:11;1.40;99.90
1055;DHT22;516;51.482;7.120;2022-12-11T19:04:59;1.40;99.90
1055;DHT22;516;51.482;7.120;2022-12-11T19:10:46;1.30;99.90
1055;DHT22;516;51.482;7.120;2022-12-11T19:16:40;1.30;99.90
1055;DHT22;516;51.482;7.120;2022-12-11T19:22:28;1.20;99.90
1055;DHT22;516;51.482;7.120;2022-12-11T19:28:16;1.20;99.90
1055;DHT22;516;51.482;7.120;2022-12-11T19:34:03;1.30;99.90
1055;DHT22;516;51.482;7.120;2022-12-11T19:39:50;1.30;99.90
1055;DHT22;516;51.482;7.120;2022-12-11T19:45:28;1.30;99.90
1055;DHT22;516;51.482;7.120;2022-12-11T19:51:21;1.20;99.90
1055;DHT22;516;51.482;7.120;2022-12-11T19:57:10;1.30;99.90
1055;DHT22;516;51.482;7.120;2022-12-11T20:02:57;1.40;99.90
1055;DHT22;516;51.482;7.120;2022-12-11T20:08:45;1.30;99.90
1055;DHT22;516;51.482;7.120;2022-12-11T20:14:33;1.20;99.90
1055;DHT22;516;51.482;7.120;2022-12-11T20:20:21;1.40;99.90
1055;DHT22;516;51.482;7.120;2022-12-11T20:26:15;1.30;99.90
1055;DHT22;516;51.482;7.120;2022-12-11T20:32:04;1.40;99.90
1055;DHT22;516;51.482;7.120;2022-12-11T20:37:52;1.30;99.90
1055;DHT22;516;51.482;7.120;2022-12-11T20:47:33;1.20;99.90
1055;DHT22;516;51.482;7.120;2022-12-11T20:53:20;1.20;99.90
1055;DHT22;516;51.482;7.120;2022-12-11T20:59:09;1.30;99.90
1055;DHT22;516;51.482;7.120;2022-12-11T21:04:57;1.20;99.90
1055;DHT22;516;51.482;7.120;2022-12-11T21:10:45;1.20;99.90
1055;DHT22;516;51.482;7.120;2022-12-11T21:16:34;1.20;99.90
1055;DHT22;516;51.482;7.120;2022-12-11T21:22:22;1.20;99.90
1055;DHT22;516;51.482;7.120;2022-12-11T21:28:10;1.20;99.90
1055;DHT22;516;51.482;7.120;2022-12-11T21:33:59;1.10;99.90
1055;DHT22;516;51.482;7.120;2022-12-11T21:39:47;1.20;99.90
1055;DHT22;516;51.482;7.120;2022-12-11T21:45:27;1.20;99.90
1055;DHT22;516;51.482;7.120;2022-12-11T21:57:29;1.30;99.90
1055;DHT22;516;51.482;7.120;2022-12-11T22:03:16;1.20;99.90
1055;DHT22;516;51.482;7.120;2022-12-11T22:09:04;1.20;99.90
1055;DHT22;516;51.482;7.120;2022-12-11T22:14:53;1.20;99.90
1055;DHT22;516;51.482;7.120;2022-12-11T22:20:40;1.20;99.90
1055;DHT22;516;51.482;7.120;2022-12-11T22:26:28;1.20;99.90
1055;DHT22;516;51.482;7.120;2022-12-11T22:32:16;1.20;99.90
1055;DHT22;516;51.482;7.120;2022-12-11T22:38:07;1.30;99.90
1055;DHT22;516;51.482;7.120;2022-12-11T22:47:36;1.40;99.90
1055;DHT22;516;51.482;7.120;2022-12-11T22:53:23;1.40;99.90
1055;DHT22;516;51.482;7.120;2022-12-11T22:59:11;1.40;99.90
1055;DHT22;516;51.482;7.120;2022-12-11T23:04:59;1.30;99.90
1055;DHT22;516;51.482;7.120;2022-12-11T23:10:47;1.20;99.90
1055;DHT22;516;51.482;7.120;2022-12-11T23:16:34;1.20;99.90
1055;DHT22;516;51.482;7.120;2022-12-11T23:22:21;1.30;99.90
1055;DHT22;516;51.482;7.120;2022-12-11T23:28:11;1.30;99.90
1055;DHT22;516;51.482;7.120;2022-12-11T23:33:58;1.20;99.90
1055;DHT22;516;51.482;7.120;2022-12-11T23:39:45;1.20;99.90
1055;DHT22;516;51.482;7.120;2022-12-11T23:45:29;1.30;99.90
1055;DHT22;516;51.482;7.120;2022-12-11T23:47:55;1.40;99.90
1055;DHT22;516;51.482;7.120;2022-12-11T23:50:24;1.30;99.90
